sensor_id;sensor_type;location;lat;lon;timestamp;pressure;altitude;pressure_sealevel;temperature;humidity
60715;BME280;46564;53.096;8.246;2023-04-04T00:04:49;57128.34;;;-147.53;100.00
60715;BME280;46564;53.096;8.246;2023-04-04T00:09:51;57128.34;;;-147.53;100.00
60715;BME280;46564;53.096;8.246;2023-04-04T00:14:53;57128.34;;;-147.53;100.00
60715;BME280;46564;53.096;8.246;2023-04-04T00:19:54;57128.34;;;-147.53;100.00
60715;BME280;46564;53.096;8.246;2023-04-04T00:24:57;57128.34;;;-147.53;100.00
60715;BME280;46564;53.096;8.246;2023-04-04T00:29:59;57128.34;;;-147.53;100.00
60715;BME280;46564;53.096;8.246;2023-04-04T00:35:01;57128.34;;;-147.53;100.00
60715;BME280;46564;53.096;8.246;2023-04-04T00:40:03;57128.34;;;-147.53;100.00
60715;BME280;46564;53.096;8.246;2023-04-04T00:45:08;57128.34;;;-147.53;100.00
60715;BME280;46564;53.096;8.246;2023-04-04T00:50:10;57128.34;;;-147.53;100.00
60715;BME280;46564;53.096;8.246;2023-04-04T00:55:11;57128.34;;;-147.53;100.00
60715;BME280;46564;53.096;8.246;2023-04-04T01:00:13;57128.34;;;-147.53;100.00
60715;BME280;46564;53.096;8.246;2023-04-04T01:05:16;57128.34;;;-147.53;100.00
60715;BME280;46564;53.096;8.246;2023-04-04T01:10:18;57128.34;;;-147.53;100.00
60715;BME280;46564;53.096;8.246;2023-04-04T01:15:19;57128.34;;;-147.53;100.00
60715;BME280;46564;53.096;8.246;2023-04-04T01:20:24;57128.34;;;-147.53;100.00
60715;BME280;46564;53.096;8.246;2023-04-04T01:25:30;57128.34;;;-147.53;100.00
60715;BME280;46564;53.096;8.246;2023-04-04T01:30:41;57128.34;;;-147.53;100.00
60715;BME280;46564;53.096;8.246;2023-04-04T01:35:52;57128.34;;;-147.53;100.00
60715;BME280;46564;53.096;8.246;2023-04-04T01:41:07;57128.34;;;-147.53;100.00
60715;BME280;46564;53.096;8.246;2023-04-04T01:46:12;57128.34;;;-147.53;100.00
60715;BME280;46564;53.096;8.246;2023-04-04T01:51:18;57128.34;;;-147.53;100.00
60715;BME280;46564;53.096;8.246;2023-04-04T01:56:21;57128.34;;;-147.53;100.00
60715;BME280;46564;53.096;8.246;2023-04-04T02:01:23;57128.34;;;-147.53;100.00
60715;BME280;46564;53.096;8.246;2023-04-04T02:06:25;57128.34;;;-147.53;100.00
60715;BME280;46564;53.096;8.246;2023-04-04T02:11:27;57128.34;;;-147.53;100.00
60715;BME280;46564;53.096;8.246;2023-04-04T02:16:28;57128.34;;;-147.53;100.00
60715;BME280;46564;53.096;8.246;2023-04-04T02:21:31;57128.34;;;-147.53;100.00
60715;BME280;46564;53.096;8.246;2023-04-04T02:26:32;57128.34;;;-147.53;100.00
60715;BME280;46564;53.096;8.246;2023-04-04T02:31:34;57128.34;;;-147.53;100.00
60715;BME280;46564;53.096;8.246;2023-04-04T02:36:35;57128.34;;;-147.53;100.00
60715;BME280;46564;53.096;8.246;2023-04-04T02:41:38;57128.34;;;-147.53;100.00
60715;BME280;46564;53.096;8.246;2023-04-04T02:46:39;57128.34;;;-147.53;100.00
60715;BME280;46564;53.096;8.246;2023-04-04T02:51:45;57128.34;;;-147.53;100.00
60715;BME280;46564;53.096;8.246;2023-04-04T02:56:48;57128.34;;;-147.53;100.00
60715;BME280;46564;53.096;8.246;2023-04-04T03:01:49;57128.34;;;-147.53;100.00
60715;BME280;46564;53.096;8.246;2023-04-04T03:06:51;57128.34;;;-147.53;100.00
60715;BME280;46564;53.096;8.246;2023-04-04T03:11:54;57128.34;;;-147.53;100.00
60715;BME280;46564;53.096;8.246;2023-04-04T03:16:56;57128.34;;;-147.53;100.00
60715;BME280;46564;53.096;8.246;2023-04-04T03:21:58;57128.34;;;-147.53;100.00
60715;BME280;46564;53.096;8.246;2023-04-04T03:27:00;57128.34;;;-147.53;100.00
60715;BME280;46564;53.096;8.246;2023-04-04T03:32:02;57128.34;;;-147.53;100.00
60715;BME280;46564;53.096;8.246;2023-04-04T03:37:06;57128.34;;;-147.53;100.00
60715;BME280;46564;53.096;8.246;2023-04-04T03:42:08;57128.34;;;-147.53;100.00
60715;BME280;46564;53.096;8.246;2023-04-04T03:47:09;57128.34;;;-147.53;100.00
60715;BME280;46564;53.096;8.246;2023-04-04T03:52:12;57128.34;;;-147.53;100.00
60715;BME280;46564;53.096;8.246;2023-04-04T03:57:14;57128.34;;;-147.53;100.00
60715;BME280;46564;53.096;8.246;2023-04-04T04:02:16;57128.34;;;-147.53;100.00
60715;BME280;46564;53.096;8.246;2023-04-04T04:07:19;57128.34;;;-147.53;100.00
60715;BME280;46564;53.096;8.246;2023-04-04T04:12:21;57128.34;;;-147.53;100.00
60715;BME280;46564;53.096;8.246;2023-04-04T04:17:25;57128.34;;;-147.53;100.00
60715;BME280;46564;53.096;8.246;2023-04-04T04:22:28;57128.34;;;-147.53;100.00
60715;BME280;46564;53.096;8.246;2023-04-04T04:27:29;57128.34;;;-147.53;100.00
60715;BME280;46564;53.096;8.246;2023-04-04T04:32:31;57128.34;;;-147.53;100.00
60715;BME280;46564;53.096;8.246;2023-04-04T04:37:33;57128.34;;;-147.53;100.00
60715;BME280;46564;53.096;8.246;2023-04-04T04:42:36;57128.34;;;-147.53;100.00
60715;BME280;46564;53.096;8.246;2023-04-04T04:47:39;57128.34;;;-147.53;100.00
60715;BME280;46564;53.096;8.246;2023-04-04T04:52:43;57128.34;;;-147.53;100.00
60715;BME280;46564;53.096;8.246;2023-04-04T04:57:46;57128.34;;;-147.53;100.00
60715;BME280;46564;53.096;8.246;2023-04-04T05:02:57;57128.34;;;-147.53;100.00
60715;BME280;46564;53.096;8.246;2023-04-04T05:08:10;57128.34;;;-147.53;100.00
60715;BME280;46564;53.096;8.246;2023-04-04T05:13:18;57128.34;;;-147.53;100.00
60715;BME280;46564;53.096;8.246;2023-04-04T05:18:21;57128.34;;;-147.53;100.00
60715;BME280;46564;53.096;8.246;2023-04-04T05:23:23;57128.34;;;-147.53;100.00
60715;BME280;46564;53.096;8.246;2023-04-04T05:28:25;57128.34;;;-147.53;100.00
60715;BME280;46564;53.096;8.246;2023-04-04T05:33:31;57128.34;;;-147.53;100.00
60715;BME280;46564;53.096;8.246;2023-04-04T05:38:45;57128.34;;;-147.53;100.00
60715;BME280;46564;53.096;8.246;2023-04-04T05:43:49;57128.34;;;-147.53;100.00
60715;BME280;46564;53.096;8.246;2023-04-04T05:48:55;57128.34;;;-147.53;100.00
60715;BME280;46564;53.096;8.246;2023-04-04T05:53:58;57128.34;;;-147.53;100.00
60715;BME280;46564;53.096;8.246;2023-04-04T05:59:05;57128.34;;;-147.53;100.00
60715;BME280;46564;53.096;8.246;2023-04-04T06:04:13;57128.34;;;-147.53;100.00
60715;BME280;46564;53.096;8.246;2023-04-04T06:09:14;57128.34;;;-147.53;100.00
60715;BME280;46564;53.096;8.246;2023-04-04T06:14:16;57128.34;;;-147.53;100.00
60715;BME280;46564;53.096;8.246;2023-04-04T06:19:19;57128.34;;;-147.53;100.00
60715;BME280;46564;53.096;8.246;2023-04-04T06:24:22;57128.34;;;-147.53;100.00
60715;BME280;46564;53.096;8.246;2023-04-04T06:29:23;57128.34;;;-147.53;100.00
60715;BME280;46564;53.096;8.246;2023-04-04T06:34:28;57128.34;;;-147.53;100.00
60715;BME280;46564;53.096;8.246;2023-04-04T06:39:33;57128.34;;;-147.53;100.00
60715;BME280;46564;53.096;8.246;2023-04-04T06:44:37;57128.34;;;-147.53;100.00
60715;BME280;46564;53.096;8.246;2023-04-04T06:49:39;57128.34;;;-147.53;100.00
60715;BME280;46564;53.096;8.246;2023-04-04T06:54:41;57128.34;;;-147.53;100.00
60715;BME280;46564;53.096;8.246;2023-04-04T06:59:43;57128.34;;;-147.53;100.00
60715;BME280;46564;53.096;8.246;2023-04-04T07:04:45;57128.34;;;-147.53;100.00
60715;BME280;46564;53.096;8.246;2023-04-04T07:09:47;57128.34;;;-147.53;100.00
60715;BME280;46564;53.096;8.246;2023-04-04T07:14:48;57128.34;;;-147.53;100.00
60715;BME280;46564;53.096;8.246;2023-04-04T07:19:50;57128.34;;;-147.53;100.00
60715;BME280;46564;53.096;8.246;2023-04-04T07:24:51;57128.34;;;-147.53;100.00
60715;BME280;46564;53.096;8.246;2023-04-04T07:29:53;57128.34;;;-147.53;100.00
60715;BME280;46564;53.096;8.246;2023-04-04T07:34:54;57128.34;;;-147.53;100.00
60715;BME280;46564;53.096;8.246;2023-04-04T07:39:56;57128.34;;;-147.53;100.00
60715;BME280;46564;53.096;8.246;2023-04-04T07:45:00;57128.34;;;-147.53;100.00
60715;BME280;46564;53.096;8.246;2023-04-04T07:50:03;57128.34;;;-147.53;100.00
60715;BME280;46564;53.096;8.246;2023-04-04T07:55:05;57128.34;;;-147.53;100.00
60715;BME280;46564;53.096;8.246;2023-04-04T08:00:08;57128.34;;;-147.53;100.00
60715;BME280;46564;53.096;8.246;2023-04-04T08:05:14;57128.34;;;-147.53;100.00
60715;BME280;46564;53.096;8.246;2023-04-04T08:10:15;57128.34;;;-147.53;100.00
60715;BME280;46564;53.096;8.246;2023-04-04T08:15:18;57128.34;;;-147.53;100.00
60715;BME280;46564;53.096;8.246;2023-04-04T08:20:20;57128.34;;;-147.53;100.00
60715;BME280;46564;53.096;8.246;2023-04-04T08:25:21;57128.34;;;-147.53;100.00
60715;BME280;46564;53.096;8.246;2023-04-04T08:30:24;57128.34;;;-147.53;100.00
60715;BME280;46564;53.096;8.246;2023-04-04T08:35:25;57128.34;;;-147.53;100.00
60715;BME280;46564;53.096;8.246;2023-04-04T08:40:27;57128.34;;;-147.53;100.00
60715;BME280;46564;53.096;8.246;2023-04-04T08:45:31;57128.34;;;-147.53;100.00
60715;BME280;46564;53.096;8.246;2023-04-04T08:50:35;57128.34;;;-147.53;100.00
60715;BME280;46564;53.096;8.246;2023-04-04T08:55:39;57128.34;;;-147.53;100.00
60715;BME280;46564;53.096;8.246;2023-04-04T09:00:42;57128.34;;;-147.53;100.00
60715;BME280;46564;53.096;8.246;2023-04-04T09:05:44;57128.34;;;-147.53;100.00
60715;BME280;46564;53.096;8.246;2023-04-04T09:10:46;57128.34;;;-147.53;100.00
60715;BME280;46564;53.096;8.246;2023-04-04T09:15:51;57128.34;;;-147.53;100.00
60715;BME280;46564;53.096;8.246;2023-04-04T09:20:55;57128.34;;;-147.53;100.00
60715;BME280;46564;53.096;8.246;2023-04-04T09:25:57;57128.34;;;-147.53;100.00
60715;BME280;46564;53.096;8.246;2023-04-04T09:31:07;57128.34;;;-147.53;100.00
60715;BME280;46564;53.096;8.246;2023-04-04T09:36:11;57128.34;;;-147.53;100.00
60715;BME280;46564;53.096;8.246;2023-04-04T09:41:14;57128.34;;;-147.53;100.00
60715;BME280;46564;53.096;8.246;2023-04-04T09:46:20;57128.34;;;-147.53;100.00
60715;BME280;46564;53.096;8.246;2023-04-04T09:51:22;57128.34;;;-147.53;100.00
60715;BME280;46564;53.096;8.246;2023-04-04T09:56:26;57128.34;;;-147.53;100.00
60715;BME280;46564;53.096;8.246;2023-04-04T10:01:28;57128.34;;;-147.53;100.00
60715;BME280;46564;53.096;8.246;2023-04-04T10:06:30;57128.34;;;-147.53;100.00
60715;BME280;46564;53.096;8.246;2023-04-04T10:11:33;57128.34;;;-147.53;100.00
60715;BME280;46564;53.096;8.246;2023-04-04T10:16:35;57128.34;;;-147.53;100.00
60715;BME280;46564;53.096;8.246;2023-04-04T10:21:38;57128.34;;;-147.53;100.00
60715;BME280;46564;53.096;8.246;2023-04-04T10:26:40;57128.34;;;-147.53;100.00
60715;BME280;46564;53.096;8.246;2023-04-04T10:31:41;57128.34;;;-147.53;100.00
60715;BME280;46564;53.096;8.246;2023-04-04T10:36:46;57128.34;;;-147.53;100.00
60715;BME280;46564;53.096;8.246;2023-04-04T10:41:50;57128.34;;;-147.53;100.00
60715;BME280;46564;53.096;8.246;2023-04-04T10:46:52;57128.34;;;-147.53;100.00
60715;BME280;46564;53.096;8.246;2023-04-04T10:51:55;57128.34;;;-147.53;100.00
60715;BME280;46564;53.096;8.246;2023-04-04T10:56:58;57128.34;;;-147.53;100.00
60715;BME280;46564;53.096;8.246;2023-04-04T11:02:03;57128.34;;;-147.53;100.00
60715;BME280;46564;53.096;8.246;2023-04-04T11:12:09;57128.34;;;-147.53;100.00
60715;BME280;46564;53.096;8.246;2023-04-04T11:17:16;57128.34;;;-147.53;100.00
60715;BME280;46564;53.096;8.246;2023-04-04T11:22:21;57128.34;;;-147.53;100.00
60715;BME280;46564;53.096;8.246;2023-04-04T11:27:24;57128.34;;;-147.53;100.00
60715;BME280;46564;53.096;8.246;2023-04-04T11:32:32;57128.34;;;-147.53;100.00
60715;BME280;46564;53.096;8.246;2023-04-04T11:42:56;57128.34;;;-147.53;100.00
60715;BME280;46564;53.096;8.246;2023-04-04T11:48:04;57128.34;;;-147.53;100.00
60715;BME280;46564;53.096;8.246;2023-04-04T11:53:08;57128.34;;;-147.53;100.00
60715;BME280;46564;53.096;8.246;2023-04-04T11:58:12;57128.34;;;-147.53;100.00
60715;BME280;46564;53.096;8.246;2023-04-04T12:03:15;57128.34;;;-147.53;100.00
60715;BME280;46564;53.096;8.246;2023-04-04T12:08:19;57128.34;;;-147.53;100.00
60715;BME280;46564;53.096;8.246;2023-04-04T12:13:29;57128.34;;;-147.53;100.00
60715;BME280;46564;53.096;8.246;2023-04-04T12:18:31;57128.34;;;-147.53;100.00
60715;BME280;46564;53.096;8.246;2023-04-04T12:23:33;57128.34;;;-147.53;100.00
60715;BME280;46564;53.096;8.246;2023-04-04T12:28:39;57128.34;;;-147.53;100.00
60715;BME280;46564;53.096;8.246;2023-04-04T12:33:43;57128.34;;;-147.53;100.00
60715;BME280;46564;53.096;8.246;2023-04-04T12:38:56;57128.34;;;-147.53;100.00
60715;BME280;46564;53.096;8.246;2023-04-04T12:44:00;57128.34;;;-147.53;100.00
60715;BME280;46564;53.096;8.246;2023-04-04T12:49:10;57128.34;;;-147.53;100.00
60715;BME280;46564;53.096;8.246;2023-04-04T12:54:30;57128.34;;;-147.53;100.00
60715;BME280;46564;53.096;8.246;2023-04-04T12:59:33;57128.34;;;-147.53;100.00
60715;BME280;46564;53.096;8.246;2023-04-04T13:04:35;57128.34;;;-147.53;100.00
60715;BME280;46564;53.096;8.246;2023-04-04T13:09:50;57128.34;;;-147.53;100.00
60715;BME280;46564;53.096;8.246;2023-04-04T13:14:59;57128.34;;;-147.53;100.00
60715;BME280;46564;53.096;8.246;2023-04-04T13:20:01;57128.34;;;-147.53;100.00
60715;BME280;46564;53.096;8.246;2023-04-04T13:25:03;57128.34;;;-147.53;100.00
60715;BME280;46564;53.096;8.246;2023-04-04T13:30:05;57128.34;;;-147.53;100.00
60715;BME280;46564;53.096;8.246;2023-04-04T13:35:11;57128.34;;;-147.53;100.00
60715;BME280;46564;53.096;8.246;2023-04-04T13:40:13;57128.34;;;-147.53;100.00
60715;BME280;46564;53.096;8.246;2023-04-04T13:45:15;57128.34;;;-147.53;100.00
60715;BME280;46564;53.096;8.246;2023-04-04T13:50:16;57128.34;;;-147.53;100.00
60715;BME280;46564;53.096;8.246;2023-04-04T13:55:18;57128.34;;;-147.53;100.00
60715;BME280;46564;53.096;8.246;2023-04-04T14:00:20;57128.34;;;-147.53;100.00
60715;BME280;46564;53.096;8.246;2023-04-04T14:05:21;57128.34;;;-147.53;100.00
60715;BME280;46564;53.096;8.246;2023-04-04T14:10:23;57128.34;;;-147.53;100.00
60715;BME280;46564;53.096;8.246;2023-04-04T14:15:24;57128.34;;;-147.53;100.00
60715;BME280;46564;53.096;8.246;2023-04-04T14:20:25;57128.34;;;-147.53;100.00
60715;BME280;46564;53.096;8.246;2023-04-04T14:25:27;57128.34;;;-147.53;100.00
60715;BME280;46564;53.096;8.246;2023-04-04T14:30:29;57128.34;;;-147.53;100.00
60715;BME280;46564;53.096;8.246;2023-04-04T14:35:30;57128.34;;;-147.53;100.00
60715;BME280;46564;53.096;8.246;2023-04-04T14:40:32;57128.34;;;-147.53;100.00
60715;BME280;46564;53.096;8.246;2023-04-04T14:45:33;57128.34;;;-147.53;100.00
60715;BME280;46564;53.096;8.246;2023-04-04T14:50:35;57128.34;;;-147.53;100.00
60715;BME280;46564;53.096;8.246;2023-04-04T14:55:38;57128.34;;;-147.53;100.00
60715;BME280;46564;53.096;8.246;2023-04-04T15:00:40;57128.34;;;-147.53;100.00
60715;BME280;46564;53.096;8.246;2023-04-04T15:05:42;57128.34;;;-147.53;100.00
60715;BME280;46564;53.096;8.246;2023-04-04T15:10:44;57128.34;;;-147.53;100.00
60715;BME280;46564;53.096;8.246;2023-04-04T15:15:45;57128.34;;;-147.53;100.00
60715;BME280;46564;53.096;8.246;2023-04-04T15:20:47;57128.34;;;-147.53;100.00
60715;BME280;46564;53.096;8.246;2023-04-04T15:25:49;57128.34;;;-147.53;100.00
60715;BME280;46564;53.096;8.246;2023-04-04T15:30:51;57128.34;;;-147.53;100.00
60715;BME280;46564;53.096;8.246;2023-04-04T15:35:52;57128.34;;;-147.53;100.00
60715;BME280;46564;53.096;8.246;2023-04-04T15:40:54;57128.34;;;-147.53;100.00
60715;BME280;46564;53.096;8.246;2023-04-04T15:45:56;57128.34;;;-147.53;100.00
60715;BME280;46564;53.096;8.246;2023-04-04T15:50:59;57128.34;;;-147.53;100.00
60715;BME280;46564;53.096;8.246;2023-04-04T15:56:02;57128.34;;;-147.53;100.00
60715;BME280;46564;53.096;8.246;2023-04-04T16:01:07;57128.34;;;-147.53;100.00
60715;BME280;46564;53.096;8.246;2023-04-04T16:06:09;57128.34;;;-147.53;100.00
60715;BME280;46564;53.096;8.246;2023-04-04T16:11:13;57128.34;;;-147.53;100.00
60715;BME280;46564;53.096;8.246;2023-04-04T16:16:14;57128.34;;;-147.53;100.00
60715;BME280;46564;53.096;8.246;2023-04-04T16:21:16;57128.34;;;-147.53;100.00
60715;BME280;46564;53.096;8.246;2023-04-04T16:26:18;57128.34;;;-147.53;100.00
60715;BME280;46564;53.096;8.246;2023-04-04T16:31:21;57128.34;;;-147.53;100.00
60715;BME280;46564;53.096;8.246;2023-04-04T16:36:23;57128.34;;;-147.53;100.00
60715;BME280;46564;53.096;8.246;2023-04-04T16:41:27;57128.34;;;-147.53;100.00
60715;BME280;46564;53.096;8.246;2023-04-04T16:46:29;57128.34;;;-147.53;100.00
60715;BME280;46564;53.096;8.246;2023-04-04T16:51:31;57128.34;;;-147.53;100.00
60715;BME280;46564;53.096;8.246;2023-04-04T16:56:32;57128.34;;;-147.53;100.00
60715;BME280;46564;53.096;8.246;2023-04-04T17:01:34;57128.34;;;-147.53;100.00
60715;BME280;46564;53.096;8.246;2023-04-04T17:06:37;57128.34;;;-147.53;100.00
60715;BME280;46564;53.096;8.246;2023-04-04T17:11:39;57128.34;;;-147.53;100.00
60715;BME280;46564;53.096;8.246;2023-04-04T17:16:44;57128.34;;;-147.53;100.00
60715;BME280;46564;53.096;8.246;2023-04-04T17:21:46;57128.34;;;-147.53;100.00
60715;BME280;46564;53.096;8.246;2023-04-04T17:26:48;57128.34;;;-147.53;100.00
60715;BME280;46564;53.096;8.246;2023-04-04T17:31:50;57128.34;;;-147.53;100.00
60715;BME280;46564;53.096;8.246;2023-04-04T17:36:52;57128.34;;;-147.53;100.00
60715;BME280;46564;53.096;8.246;2023-04-04T17:41:54;57128.34;;;-147.53;100.00
60715;BME280;46564;53.096;8.246;2023-04-04T17:46:56;57128.34;;;-147.53;100.00
60715;BME280;46564;53.096;8.246;2023-04-04T17:51:58;57128.34;;;-147.53;100.00
60715;BME280;46564;53.096;8.246;2023-04-04T17:56:59;57128.34;;;-147.53;100.00
60715;BME280;46564;53.096;8.246;2023-04-04T18:02:03;57128.34;;;-147.53;100.00
60715;BME280;46564;53.096;8.246;2023-04-04T18:07:05;57128.34;;;-147.53;100.00
60715;BME280;46564;53.096;8.246;2023-04-04T18:12:08;57128.34;;;-147.53;100.00
60715;BME280;46564;53.096;8.246;2023-04-04T18:17:10;57128.34;;;-147.53;100.00
60715;BME280;46564;53.096;8.246;2023-04-04T18:22:12;57128.34;;;-147.53;100.00
60715;BME280;46564;53.096;8.246;2023-04-04T18:27:13;57128.34;;;-147.53;100.00
60715;BME280;46564;53.096;8.246;2023-04-04T18:32:16;57128.34;;;-147.53;100.00
60715;BME280;46564;53.096;8.246;2023-04-04T18:37:18;57128.34;;;-147.53;100.00
60715;BME280;46564;53.096;8.246;2023-04-04T18:42:19;57128.34;;;-147.53;100.00
60715;BME280;46564;53.096;8.246;2023-04-04T18:47:21;57128.34;;;-147.53;100.00
60715;BME280;46564;53.096;8.246;2023-04-04T18:52:23;57128.34;;;-147.53;100.00
60715;BME280;46564;53.096;8.246;2023-04-04T18:57:24;57128.34;;;-147.53;100.00
60715;BME280;46564;53.096;8.246;2023-04-04T19:02:26;57128.34;;;-147.53;100.00
60715;BME280;46564;53.096;8.246;2023-04-04T19:07:29;57128.34;;;-147.53;100.00
60715;BME280;46564;53.096;8.246;2023-04-04T19:12:32;57128.34;;;-147.53;100.00
60715;BME280;46564;53.096;8.246;2023-04-04T19:17:39;102539.66;;;3.80;62.61
60715;BME280;46564;53.096;8.246;2023-04-04T19:22:41;102543.41;;;3.71;62.99
60715;BME280;46564;53.096;8.246;2023-04-04T19:27:43;102547.78;;;3.61;63.56
60715;BME280;46564;53.096;8.246;2023-04-04T19:32:44;102538.53;;;3.52;63.86
60715;BME280;46564;53.096;8.246;2023-04-04T19:37:47;102537.19;;;3.46;64.22
60715;BME280;46564;53.096;8.246;2023-04-04T19:42:48;102540.13;;;3.39;64.27
60715;BME280;46564;53.096;8.246;2023-04-04T19:47:50;102527.50;;;3.31;64.67
60715;BME280;46564;53.096;8.246;2023-04-04T19:52:52;102533.69;;;3.22;64.93
60715;BME280;46564;53.096;8.246;2023-04-04T19:57:53;102542.66;;;3.15;65.31
60715;BME280;46564;53.096;8.246;2023-04-04T20:02:58;102546.16;;;3.04;65.43
60715;BME280;46564;53.096;8.246;2023-04-04T20:08:05;102534.28;;;2.95;65.75
60715;BME280;46564;53.096;8.246;2023-04-04T20:13:07;102530.47;;;2.90;65.89
60715;BME280;46564;53.096;8.246;2023-04-04T20:18:08;102527.31;;;2.82;66.41
60715;BME280;46564;53.096;8.246;2023-04-04T20:23:10;102537.59;;;2.71;66.64
60715;BME280;46564;53.096;8.246;2023-04-04T20:28:22;102535.09;;;2.60;66.94
60715;BME280;46564;53.096;8.246;2023-04-04T20:33:34;102522.75;;;2.46;67.33
60715;BME280;46564;53.096;8.246;2023-04-04T20:38:39;102525.09;;;2.43;67.55
60715;BME280;46564;53.096;8.246;2023-04-04T20:43:46;102530.44;;;2.34;67.72
60715;BME280;46564;53.096;8.246;2023-04-04T20:48:50;102527.03;;;2.23;68.08
60715;BME280;46564;53.096;8.246;2023-04-04T20:53:56;102523.72;;;2.14;68.20
60715;BME280;46564;53.096;8.246;2023-04-04T20:58:58;102525.94;;;2.09;68.58
60715;BME280;46564;53.096;8.246;2023-04-04T21:04:00;102528.81;;;2.02;68.86
60715;BME280;46564;53.096;8.246;2023-04-04T21:09:05;102523.56;;;1.90;68.99
60715;BME280;46564;53.096;8.246;2023-04-04T21:14:06;102523.34;;;1.87;69.39
60715;BME280;46564;53.096;8.246;2023-04-04T21:19:10;102513.84;;;1.76;69.61
60715;BME280;46564;53.096;8.246;2023-04-04T21:24:12;102516.69;;;1.69;69.80
60715;BME280;46564;53.096;8.246;2023-04-04T21:29:24;102520.19;;;1.59;70.16
60715;BME280;46564;53.096;8.246;2023-04-04T21:34:26;102512.50;;;1.49;70.71
60715;BME280;46564;53.096;8.246;2023-04-04T21:39:28;102516.78;;;1.38;71.22
60715;BME280;46564;53.096;8.246;2023-04-04T21:44:30;102500.66;;;1.30;71.34
60715;BME280;46564;53.096;8.246;2023-04-04T21:49:32;102506.22;;;1.24;71.73
60715;BME280;46564;53.096;8.246;2023-04-04T21:54:33;102495.38;;;1.18;71.77
60715;BME280;46564;53.096;8.246;2023-04-04T21:59:35;102505.19;;;1.12;72.33
60715;BME280;46564;53.096;8.246;2023-04-04T22:04:36;102492.31;;;1.02;72.73
60715;BME280;46564;53.096;8.246;2023-04-04T22:09:38;102506.25;;;0.94;73.08
60715;BME280;46564;53.096;8.246;2023-04-04T22:14:43;102489.22;;;0.85;73.80
60715;BME280;46564;53.096;8.246;2023-04-04T22:19:46;102492.34;;;0.81;73.80
60715;BME280;46564;53.096;8.246;2023-04-04T22:24:59;102491.28;;;0.79;74.01
60715;BME280;46564;53.096;8.246;2023-04-04T22:30:04;102488.97;;;0.72;73.96
60715;BME280;46564;53.096;8.246;2023-04-04T22:35:07;102485.88;;;0.66;74.23
60715;BME280;46564;53.096;8.246;2023-04-04T22:40:09;102480.88;;;0.57;74.14
60715;BME280;46564;53.096;8.246;2023-04-04T22:45:11;102473.13;;;0.47;74.66
60715;BME280;46564;53.096;8.246;2023-04-04T22:50:14;102471.69;;;0.40;74.98
60715;BME280;46564;53.096;8.246;2023-04-04T22:55:18;102471.94;;;0.33;74.82
60715;BME280;46564;53.096;8.246;2023-04-04T23:00:20;102473.97;;;0.27;75.06
60715;BME280;46564;53.096;8.246;2023-04-04T23:05:21;102473.97;;;0.27;75.06
60715;BME280;46564;53.096;8.246;2023-04-04T23:10:23;102476.00;;;0.10;75.33
60715;BME280;46564;53.096;8.246;2023-04-04T23:15:24;102478.84;;;0.03;75.40
60715;BME280;46564;53.096;8.246;2023-04-04T23:20:27;102474.44;;;-0.08;75.63
60715;BME280;46564;53.096;8.246;2023-04-04T23:25:32;102470.56;;;-0.13;75.95
60715;BME280;46564;53.096;8.246;2023-04-04T23:30:33;102461.72;;;-0.26;76.46
60715;BME280;46564;53.096;8.246;2023-04-04T23:35:35;102458.13;;;-0.28;76.04
60715;BME280;46564;53.096;8.246;2023-04-04T23:40:36;102455.78;;;-0.35;76.35
60715;BME280;46564;53.096;8.246;2023-04-04T23:45:38;102459.38;;;-0.43;76.56
60715;BME280;46564;53.096;8.246;2023-04-04T23:50:40;102456.22;;;-0.60;76.52
60715;BME280;46564;53.096;8.246;2023-04-04T23:55:42;102455.88;;;-0.73;76.96
